createdAt,value
2022-08-02T00:00:41.050Z,6.80
2022-08-02T00:03:09.327Z,3.47
2022-08-02T00:05:37.576Z,3.77
2022-08-02T00:08:10.139Z,6.00
2022-08-02T00:10:39.754Z,5.10
2022-08-02T00:13:07.904Z,3.97
2022-08-02T00:15:36.080Z,3.37
2022-08-02T00:18:04.612Z,4.23
2022-08-02T00:20:32.820Z,4.43
2022-08-02T00:23:01.081Z,2.90
2022-08-02T00:25:29.236Z,3.67
2022-08-02T00:27:58.805Z,3.17
2022-08-02T00:30:27.025Z,3.53
2022-08-02T00:32:55.187Z,2.57
2022-08-02T00:35:23.424Z,5.20
2022-08-02T00:37:51.752Z,3.07
2022-08-02T00:40:24.163Z,2.97
2022-08-02T00:43:04.350Z,4.07
2022-08-02T00:46:03.299Z,5.17
2022-08-02T00:48:20.840Z,5.03
2022-08-02T00:50:48.987Z,4.17
2022-08-02T00:53:17.137Z,3.40
2022-08-02T00:55:50.789Z,3.50
2022-08-02T00:58:20.302Z,5.10
2022-08-02T01:00:48.633Z,3.20
2022-08-02T01:03:16.861Z,4.80
2022-08-02T01:06:10.169Z,3.67
2022-08-02T01:08:33.515Z,4.60
2022-08-02T01:11:04.646Z,3.63
2022-08-02T01:13:34.401Z,5.10
2022-08-02T01:16:09.590Z,3.63
2022-08-02T01:18:42.988Z,3.83
2022-08-02T01:21:22.756Z,4.43
2022-08-02T01:24:05.281Z,4.73
2022-08-02T01:26:41.786Z,4.90
2022-08-02T01:29:16.744Z,2.90
2022-08-02T01:31:51.241Z,3.60
2022-08-02T01:34:23.461Z,6.87
2022-08-02T01:36:58.753Z,4.73
2022-08-02T01:39:32.587Z,3.97
2022-08-02T01:42:02.347Z,4.73
2022-08-02T01:44:35.645Z,4.10
2022-08-02T01:47:06.804Z,4.73
2022-08-02T01:49:36.776Z,6.13
2022-08-02T01:52:26.111Z,3.33
2022-08-02T01:55:01.147Z,4.67
2022-08-02T01:57:35.274Z,4.50
2022-08-02T02:00:12.876Z,4.27
2022-08-02T02:02:45.198Z,5.07
2022-08-02T02:05:19.074Z,4.87
2022-08-02T02:07:50.381Z,4.37
2022-08-02T02:10:23.149Z,6.77
2022-08-02T02:12:53.418Z,4.17
2022-08-02T02:15:24.324Z,4.23
2022-08-02T02:18:12.529Z,3.20
2022-08-02T02:20:43.242Z,4.07
2022-08-02T02:23:13.420Z,4.53
2022-08-02T02:25:46.646Z,2.90
2022-08-02T02:28:22.143Z,3.10
2022-08-02T02:30:56.394Z,3.10
2022-08-02T02:33:29.339Z,3.00
2022-08-02T02:36:00.331Z,3.60
2022-08-02T02:38:32.866Z,3.10
2022-08-02T02:41:04.007Z,3.57
2022-08-02T02:43:34.742Z,3.57
2022-08-02T02:46:06.438Z,5.30
2022-08-02T02:48:36.209Z,6.10
2022-08-02T02:51:06.211Z,3.10
2022-08-02T02:54:32.327Z,3.57
2022-08-02T02:56:26.521Z,4.50
2022-08-02T02:58:55.232Z,3.37
2022-08-02T03:01:55.602Z,3.30
2022-08-02T03:04:20.764Z,4.40
2022-08-02T03:06:49.115Z,4.07
2022-08-02T03:09:17.276Z,4.60
2022-08-02T03:11:45.958Z,4.37
2022-08-02T03:14:14.987Z,3.60
2022-08-02T03:16:48.837Z,2.83
2022-08-02T03:19:17.821Z,4.07
2022-08-02T03:21:47.724Z,3.13
2022-08-02T03:24:27.374Z,3.50
2022-08-02T03:26:56.797Z,2.90
2022-08-02T03:29:24.926Z,4.27
2022-08-02T03:31:55.374Z,2.90
2022-08-02T03:34:24.176Z,2.80
2022-08-02T03:36:56.230Z,3.33
2022-08-02T03:39:24.880Z,6.47
2022-08-02T03:41:54.101Z,3.83
2022-08-02T03:44:22.969Z,5.03
2022-08-02T03:46:51.793Z,4.93
2022-08-02T03:49:21.955Z,4.03
2022-08-02T03:51:50.515Z,5.73
2022-08-02T03:54:19.769Z,4.93
2022-08-02T03:56:48.852Z,7.23
2022-08-02T03:59:17.082Z,6.80
2022-08-02T04:01:46.194Z,7.63
2022-08-02T04:04:14.410Z,6.50
2022-08-02T04:06:43.931Z,7.23
2022-08-02T04:09:13.345Z,5.03
2022-08-02T04:11:41.387Z,6.90
2022-08-02T04:14:11.621Z,5.60
2022-08-02T04:16:43.158Z,9.13
2022-08-02T04:19:15.521Z,6.10
2022-08-02T04:21:50.009Z,6.00
2022-08-02T04:24:24.782Z,8.93
2022-08-02T04:26:54.951Z,7.67
2022-08-02T04:29:27.367Z,5.50
2022-08-02T04:31:55.726Z,8.17
2022-08-02T04:34:24.056Z,6.70
2022-08-02T04:36:53.875Z,7.53
2022-08-02T04:39:22.065Z,6.77
2022-08-02T04:41:53.367Z,7.60
2022-08-02T04:44:23.990Z,8.43
2022-08-02T04:46:52.734Z,10.30
2022-08-02T04:49:20.970Z,9.97
2022-08-02T04:51:49.151Z,8.30
2022-08-02T04:54:18.794Z,6.03
2022-08-02T04:56:47.038Z,6.23
2022-08-02T04:59:15.204Z,9.83
2022-08-02T05:01:43.387Z,7.77
2022-08-02T05:04:11.566Z,7.63
2022-08-02T05:06:39.785Z,7.93
2022-08-02T05:09:08.026Z,9.03
2022-08-02T05:11:37.591Z,7.73
2022-08-02T05:14:07.118Z,11.03
2022-08-02T05:16:35.754Z,8.13
2022-08-02T05:19:04.270Z,6.70
2022-08-02T05:21:32.600Z,10.43
2022-08-02T05:24:03.285Z,7.27
2022-08-02T05:26:31.473Z,10.27
2022-08-02T05:29:00.951Z,7.30
2022-08-02T05:31:30.940Z,7.13
2022-08-02T05:33:59.083Z,8.77
2022-08-02T05:36:27.234Z,11.27
2022-08-02T05:39:04.809Z,8.63
2022-08-02T05:41:33.780Z,6.37
2022-08-02T05:44:04.046Z,7.73
2022-08-02T05:46:32.381Z,5.13
2022-08-02T05:49:00.612Z,5.53
2022-08-02T05:51:34.411Z,7.23
2022-08-02T05:54:13.729Z,5.80
2022-08-02T05:56:47.539Z,10.50
2022-08-02T05:59:24.759Z,8.07
2022-08-02T06:01:57.632Z,5.60
2022-08-02T06:04:27.653Z,5.77
2022-08-02T06:06:59.854Z,10.67
2022-08-02T06:09:29.017Z,6.53
2022-08-02T06:12:02.430Z,6.33
2022-08-02T06:14:42.832Z,5.10
2022-08-02T06:17:12.057Z,3.97
2022-08-02T06:19:52.185Z,6.77
2022-08-02T06:22:33.795Z,6.40
2022-08-02T06:25:48.046Z,5.80
2022-08-02T06:27:59.774Z,8.43
2022-08-02T06:30:29.919Z,5.13
2022-08-02T06:32:58.182Z,8.23
2022-08-02T06:35:31.996Z,8.97
2022-08-02T06:38:02.059Z,5.43
2022-08-02T06:40:33.261Z,9.90
2022-08-02T06:43:14.011Z,5.70
2022-08-02T06:45:43.639Z,5.33
2022-08-02T06:48:12.063Z,6.60
2022-08-02T06:50:42.041Z,5.43
2022-08-02T06:53:11.533Z,5.40
2022-08-02T06:55:44.079Z,6.03
2022-08-02T06:58:13.626Z,6.43
2022-08-02T07:00:43.826Z,8.40
2022-08-02T07:03:12.057Z,5.63
2022-08-02T07:05:41.240Z,10.63
2022-08-02T07:08:09.393Z,5.37
2022-08-02T07:10:37.505Z,7.53
2022-08-02T07:13:05.616Z,5.73
2022-08-02T07:15:33.926Z,8.30
2022-08-02T07:18:03.420Z,6.03
2022-08-02T07:20:31.644Z,6.27
2022-08-02T07:23:01.462Z,7.33
2022-08-02T07:26:02.375Z,7.43
2022-08-02T07:28:24.305Z,7.00
2022-08-02T07:30:53.387Z,4.53
2022-08-02T07:33:38.041Z,6.87
2022-08-02T07:36:09.915Z,5.00
2022-08-02T07:38:45.487Z,7.83
2022-08-02T07:41:13.957Z,7.17
2022-08-02T07:43:42.152Z,8.10
2022-08-02T07:46:10.254Z,6.83
2022-08-02T07:48:42.585Z,11.10
2022-08-02T07:51:15.465Z,9.30
2022-08-02T07:53:51.008Z,5.70
2022-08-02T07:56:20.019Z,6.03
2022-08-02T07:58:48.125Z,9.50
2022-08-02T08:01:17.030Z,4.87
2022-08-02T08:03:46.975Z,3.23
2022-08-02T08:06:15.260Z,7.40
2022-08-02T08:08:45.990Z,6.00
2022-08-02T08:11:14.191Z,4.60
2022-08-02T08:13:42.372Z,8.20
2022-08-02T08:16:10.538Z,2.77
2022-08-02T08:18:38.749Z,5.60
2022-08-02T08:21:08.326Z,7.20
2022-08-02T08:23:36.612Z,4.07
2022-08-02T08:26:04.997Z,7.30
2022-08-02T08:28:35.494Z,9.53
2022-08-02T08:31:03.826Z,3.03
2022-08-02T08:33:32.037Z,3.83
2022-08-02T08:36:02.503Z,5.97
2022-08-02T08:38:32.303Z,5.27
2022-08-02T08:41:00.392Z,4.40
2022-08-02T08:43:28.660Z,5.37
2022-08-02T08:45:56.842Z,6.80
2022-08-02T08:48:31.275Z,3.80
2022-08-02T08:51:06.689Z,4.40
2022-08-02T08:53:43.206Z,5.10
2022-08-02T08:56:16.319Z,2.23
2022-08-02T08:58:45.724Z,4.63
2022-08-02T09:01:15.022Z,5.70
2022-08-02T09:03:43.482Z,3.73
2022-08-02T09:06:11.634Z,4.23
2022-08-02T09:08:41.174Z,3.37
2022-08-02T09:11:15.864Z,2.63
2022-08-02T09:13:51.754Z,5.77
2022-08-02T09:16:33.369Z,3.97
2022-08-02T09:19:02.526Z,3.53
2022-08-02T09:21:38.955Z,6.03
2022-08-02T09:24:19.400Z,3.83
2022-08-02T09:26:48.568Z,3.20
2022-08-02T09:29:18.363Z,4.13
2022-08-02T09:31:50.742Z,4.03
2022-08-02T09:34:19.720Z,3.70
2022-08-02T09:36:48.683Z,4.27
2022-08-02T09:39:28.678Z,3.80
2022-08-02T09:42:11.172Z,3.57
2022-08-02T09:44:39.762Z,3.33
2022-08-02T09:47:16.768Z,2.87
2022-08-02T09:49:52.559Z,2.37
2022-08-02T09:52:43.090Z,1.70
2022-08-02T09:55:14.248Z,2.37
2022-08-02T09:57:43.176Z,4.07
2022-08-02T10:00:31.579Z,1.67
2022-08-02T10:03:08.578Z,2.63
2022-08-02T10:05:52.835Z,4.00
2022-08-02T10:08:24.856Z,2.93
2022-08-02T10:11:00.531Z,4.80
2022-08-02T10:13:30.646Z,3.70
2022-08-02T10:15:58.998Z,1.77
2022-08-02T10:18:42.533Z,3.47
2022-08-02T10:21:15.521Z,2.47
2022-08-02T10:23:46.689Z,3.23
2022-08-02T10:26:20.080Z,3.63
2022-08-02T10:28:50.534Z,3.40
2022-08-02T10:31:26.569Z,3.63
2022-08-02T10:33:57.014Z,4.37
2022-08-02T10:36:27.276Z,1.87
2022-08-02T10:38:58.658Z,3.10
2022-08-02T10:41:46.213Z,2.60
2022-08-02T10:44:28.308Z,3.70
2022-08-02T10:47:21.021Z,1.73
2022-08-02T10:49:57.095Z,1.60
2022-08-02T10:52:25.944Z,2.37
2022-08-02T10:54:59.293Z,1.83
2022-08-02T10:57:30.876Z,2.90
2022-08-02T11:00:02.305Z,1.70
2022-08-02T11:02:41.902Z,1.63
2022-08-02T11:05:16.091Z,3.67
2022-08-02T11:07:47.593Z,3.73
2022-08-02T11:10:40.433Z,2.57
2022-08-02T11:13:15.431Z,4.00
2022-08-02T11:16:11.276Z,2.93
2022-08-02T11:19:07.188Z,3.17
2022-08-02T11:21:36.867Z,1.97
2022-08-02T11:24:41.272Z,2.80
2022-08-02T11:27:17.788Z,2.67
2022-08-02T11:29:48.933Z,2.07
2022-08-02T11:32:19.536Z,2.13
2022-08-02T11:34:49.351Z,1.70
2022-08-02T11:37:29.355Z,1.87
2022-08-02T11:39:57.468Z,3.40
2022-08-02T11:42:33.264Z,2.23
2022-08-02T11:45:03.601Z,2.80
2022-08-02T11:47:32.636Z,3.10
2022-08-02T11:50:08.054Z,3.97
2022-08-02T11:52:37.615Z,1.77
2022-08-02T11:55:08.564Z,3.63
2022-08-02T11:58:04.752Z,2.23
2022-08-02T12:00:30.684Z,3.37
2022-08-02T12:02:59.367Z,3.43
2022-08-02T12:06:02.887Z,3.37
2022-08-02T12:08:19.147Z,2.17
2022-08-02T12:10:52.893Z,2.00
2022-08-02T12:13:21.177Z,3.27
2022-08-02T12:15:50.697Z,3.30
2022-08-02T12:18:38.522Z,2.30
2022-08-02T12:21:23.634Z,2.87
2022-08-02T12:23:59.749Z,2.70
2022-08-02T12:26:29.057Z,2.53
2022-08-02T12:28:58.512Z,3.17
2022-08-02T12:31:56.280Z,2.60
2022-08-02T12:34:31.379Z,2.57
2022-08-02T12:37:07.125Z,3.17
2022-08-02T12:39:38.298Z,2.43
2022-08-02T12:42:07.510Z,2.50
2022-08-02T12:44:37.960Z,5.63
2022-08-02T12:47:10.817Z,3.37
2022-08-02T12:49:39.083Z,2.80
2022-08-02T12:52:20.371Z,3.87
2022-08-02T12:54:49.924Z,3.80
2022-08-02T12:57:20.105Z,4.27
2022-08-02T12:59:55.131Z,3.37
2022-08-02T13:02:24.705Z,3.50
2022-08-02T13:04:52.891Z,2.63
2022-08-02T13:07:21.199Z,2.53
2022-08-02T13:09:50.164Z,3.67
2022-08-02T13:12:18.629Z,3.83
2022-08-02T13:14:49.487Z,2.30
2022-08-02T13:17:17.729Z,2.37
2022-08-02T13:19:51.071Z,4.00
2022-08-02T13:22:21.514Z,2.40
2022-08-02T13:24:56.521Z,3.47
2022-08-02T13:27:26.405Z,3.60
2022-08-02T13:29:56.414Z,5.80
2022-08-02T13:32:26.391Z,3.93
2022-08-02T13:34:56.388Z,3.37
2022-08-02T13:37:24.837Z,3.10
2022-08-02T13:40:18.685Z,3.50
2022-08-02T13:42:41.405Z,2.60
2022-08-02T13:45:12.670Z,2.60
2022-08-02T13:48:04.149Z,2.63
2022-08-02T13:50:32.402Z,3.77
2022-08-02T13:53:00.558Z,2.30
2022-08-02T13:55:29.113Z,2.83
2022-08-02T13:57:57.368Z,3.07
2022-08-02T14:00:35.513Z,3.53
2022-08-02T14:03:06.893Z,4.57
2022-08-02T14:05:47.186Z,4.47
2022-08-02T14:08:17.831Z,3.83
2022-08-02T14:10:46.919Z,2.90
2022-08-02T14:13:15.242Z,2.63
2022-08-02T14:15:43.980Z,2.33
2022-08-02T14:18:12.188Z,2.17
2022-08-02T14:20:41.811Z,3.07
2022-08-02T14:23:10.052Z,2.67
2022-08-02T14:25:38.725Z,4.70
2022-08-02T14:28:07.095Z,3.13
2022-08-02T14:30:35.551Z,3.47
2022-08-02T14:33:05.738Z,3.73
2022-08-02T14:35:34.220Z,7.00
2022-08-02T14:38:03.761Z,2.40
2022-08-02T14:40:32.200Z,2.83
2022-08-02T14:43:01.230Z,3.27
2022-08-02T14:45:40.287Z,2.93
2022-08-02T14:48:10.904Z,4.10
2022-08-02T14:50:39.107Z,3.10
2022-08-02T14:53:12.776Z,2.87
2022-08-02T14:55:43.470Z,2.55
2022-08-02T14:58:11.823Z,2.97
2022-08-02T15:00:41.779Z,3.33
2022-08-02T15:03:12.812Z,2.50
2022-08-02T15:05:41.155Z,2.63
2022-08-02T15:08:10.677Z,2.40
2022-08-02T15:10:38.834Z,2.17
2022-08-02T15:13:07.578Z,2.40
2022-08-02T15:15:40.592Z,3.10
2022-08-02T15:18:12.826Z,3.50
2022-08-02T15:20:41.404Z,2.20
2022-08-02T15:23:13.007Z,2.07
2022-08-02T15:25:42.150Z,2.10
2022-08-02T15:28:10.708Z,2.80
2022-08-02T15:30:39.359Z,2.20
2022-08-02T15:33:07.604Z,3.80
2022-08-02T15:35:35.794Z,2.80
2022-08-02T15:38:04.150Z,2.60
2022-08-02T15:40:33.639Z,2.37
2022-08-02T15:43:01.837Z,2.33
2022-08-02T15:45:30.021Z,2.37
2022-08-02T15:47:58.436Z,2.57
2022-08-02T15:50:26.659Z,4.53
2022-08-02T15:52:54.848Z,3.23
2022-08-02T15:55:23.043Z,4.27
2022-08-02T15:57:52.649Z,2.73
2022-08-02T16:00:22.307Z,2.50
2022-08-02T16:02:50.569Z,2.23
2022-08-02T16:05:19.997Z,3.03
2022-08-02T16:07:48.632Z,3.20
2022-08-02T16:10:18.079Z,2.70
2022-08-02T16:12:46.353Z,3.73
2022-08-02T16:15:15.967Z,2.17
2022-08-02T16:17:53.737Z,2.30
2022-08-02T16:20:23.146Z,2.13
2022-08-02T16:22:51.421Z,2.97
2022-08-02T16:25:22.271Z,3.23
2022-08-02T16:28:06.058Z,2.50
2022-08-02T16:30:37.124Z,2.20
2022-08-02T16:33:05.425Z,3.17
2022-08-02T16:35:34.836Z,2.30
2022-08-02T16:38:03.145Z,2.03
2022-08-02T16:40:34.211Z,5.97
2022-08-02T16:43:02.841Z,2.63
2022-08-02T16:45:38.648Z,2.93
2022-08-02T16:48:07.748Z,2.27
2022-08-02T16:50:38.074Z,2.50
2022-08-02T16:53:07.266Z,3.20
2022-08-02T16:55:36.502Z,4.53
2022-08-02T16:58:05.153Z,2.70
2022-08-02T17:00:46.327Z,2.90
2022-08-02T17:03:14.942Z,2.67
2022-08-02T17:05:55.739Z,2.13
2022-08-02T17:08:32.139Z,2.37
2022-08-02T17:11:03.636Z,2.43
2022-08-02T17:13:34.395Z,4.10
2022-08-02T17:16:26.283Z,2.53
2022-08-02T17:18:55.488Z,2.27
2022-08-02T17:21:23.737Z,3.03
2022-08-02T17:24:06.156Z,2.67
2022-08-02T17:26:37.123Z,3.33
2022-08-02T17:32:05.496Z,2.17
2022-08-02T17:34:38.241Z,2.73
2022-08-02T17:37:06.802Z,2.90
2022-08-02T17:39:44.381Z,3.23
2022-08-02T17:42:20.356Z,2.13
2022-08-02T17:44:53.025Z,3.10
2022-08-02T17:47:23.644Z,2.20
2022-08-02T17:49:59.407Z,2.17
2022-08-02T17:52:50.948Z,2.47
2022-08-02T17:55:19.303Z,2.10
2022-08-02T17:57:57.714Z,2.00
2022-08-02T18:00:39.658Z,2.47
2022-08-02T18:03:10.157Z,2.13
2022-08-02T18:05:40.148Z,3.30
2022-08-02T18:08:23.165Z,2.83
2022-08-02T18:10:53.852Z,2.70
2022-08-02T18:13:22.123Z,2.80
2022-08-02T18:15:52.276Z,3.00
2022-08-02T18:18:29.970Z,2.53
2022-08-02T18:21:22.291Z,4.70
2022-08-02T18:23:48.704Z,2.77
2022-08-02T18:26:17.919Z,2.63
2022-08-02T18:28:49.363Z,3.33
2022-08-02T18:31:22.252Z,2.37
2022-08-02T18:34:01.555Z,3.57
2022-08-02T18:36:31.554Z,2.37
2022-08-02T18:39:08.314Z,2.30
2022-08-02T18:41:38.145Z,2.17
2022-08-02T18:44:06.852Z,5.37
2022-08-02T18:46:35.247Z,11.37
2022-08-02T18:49:15.064Z,7.67
2022-08-02T18:51:44.710Z,3.83
2022-08-02T18:54:13.036Z,3.67
2022-08-02T18:56:47.549Z,2.50
2022-08-02T18:59:16.804Z,2.77
2022-08-02T19:01:50.967Z,2.60
2022-08-02T19:04:27.132Z,5.77
2022-08-02T19:07:03.908Z,9.67
2022-08-02T19:09:36.174Z,4.10
2022-08-02T19:12:11.285Z,3.00
2022-08-02T19:14:40.082Z,3.50
2022-08-02T19:17:15.702Z,3.33
2022-08-02T19:19:58.502Z,3.03
2022-08-02T19:22:27.327Z,5.23
2022-08-02T19:24:59.938Z,2.90
2022-08-02T19:27:32.831Z,7.17
2022-08-02T19:30:03.103Z,7.13
2022-08-02T19:32:40.820Z,6.50
2022-08-02T19:35:30.507Z,6.70
2022-08-02T19:38:09.281Z,50.53
2022-08-02T19:40:38.719Z,45.17
2022-08-02T19:44:23.733Z,24.10
2022-08-02T19:45:57.534Z,14.23
2022-08-02T19:48:27.137Z,13.63
2022-08-02T19:51:00.786Z,10.60
2022-08-02T19:53:46.892Z,9.77
2022-08-02T19:56:24.711Z,6.70
2022-08-02T19:58:58.557Z,7.30
2022-08-02T20:01:38.819Z,10.07
2022-08-02T20:04:13.693Z,8.90
2022-08-02T20:06:46.035Z,8.57
2022-08-02T20:09:47.209Z,7.57
2022-08-02T20:12:16.334Z,7.60
2022-08-02T20:14:51.019Z,7.67
2022-08-02T20:17:21.107Z,7.37
2022-08-02T20:19:49.337Z,6.77
2022-08-02T20:22:19.137Z,5.43
2022-08-02T20:24:47.391Z,4.83
2022-08-02T20:27:21.742Z,5.80
2022-08-02T20:29:53.055Z,6.83
2022-08-02T20:32:24.351Z,5.50
2022-08-02T20:34:53.370Z,4.90
2022-08-02T20:37:59.800Z,5.87
2022-08-02T20:40:17.026Z,5.37
2022-08-02T20:42:48.027Z,5.23
2022-08-02T20:45:16.795Z,4.33
2022-08-02T20:47:49.879Z,3.93
2022-08-02T20:50:36.905Z,4.47
2022-08-02T20:53:08.108Z,3.67
2022-08-02T20:55:53.036Z,3.97
2022-08-02T20:58:21.547Z,3.93
2022-08-02T21:00:58.966Z,4.33
2022-08-02T21:03:38.833Z,4.33
2022-08-02T21:06:09.470Z,4.37
2022-08-02T21:08:39.141Z,4.70
2022-08-02T21:11:09.568Z,4.20
2022-08-02T21:13:47.008Z,4.07
2022-08-02T21:16:29.209Z,3.80
2022-08-02T21:18:59.906Z,3.83
2022-08-02T21:21:29.623Z,4.10
2022-08-02T21:24:00.138Z,4.70
2022-08-02T21:26:30.743Z,4.60
2022-08-02T21:29:03.980Z,4.00
2022-08-02T21:31:33.675Z,4.23
2022-08-02T21:34:21.788Z,5.37
2022-08-02T21:36:53.872Z,4.30
2022-08-02T21:39:24.063Z,5.07
2022-08-02T21:41:54.225Z,4.60
2022-08-02T21:44:23.165Z,4.83
2022-08-02T21:46:53.843Z,4.53
2022-08-02T21:49:27.627Z,4.73
2022-08-02T21:52:15.089Z,4.23
2022-08-02T21:54:46.405Z,4.93
2022-08-02T21:57:16.825Z,4.80
2022-08-02T21:59:46.359Z,4.40
2022-08-02T22:02:15.178Z,3.90
2022-08-02T22:04:47.962Z,4.03
2022-08-02T22:07:23.867Z,4.20
2022-08-02T22:09:55.402Z,4.40
2022-08-02T22:12:26.026Z,4.40
2022-08-02T22:15:00.601Z,4.43
2022-08-02T22:17:51.235Z,4.80
2022-08-02T22:20:20.854Z,4.40
2022-08-02T22:22:50.149Z,4.33
2022-08-02T22:25:26.327Z,7.10
2022-08-02T22:28:38.114Z,5.33
2022-08-02T22:30:55.035Z,3.73
2022-08-02T22:33:47.019Z,3.97
2022-08-02T22:36:28.983Z,3.90
2022-08-02T22:38:57.272Z,3.40
2022-08-02T22:42:02.078Z,4.10
2022-08-02T22:44:15.139Z,3.90
2022-08-02T22:46:46.826Z,3.90
2022-08-02T22:49:38.395Z,4.13
2022-08-02T22:52:06.664Z,4.27
2022-08-02T22:54:34.767Z,4.10
2022-08-02T22:57:06.594Z,4.00
2022-08-02T22:58:38.701Z,4.70
2022-08-02T22:59:40.668Z,3.80
2022-08-02T23:02:10.374Z,6.03
2022-08-02T23:04:38.748Z,5.17
2022-08-02T23:07:08.489Z,3.70
2022-08-02T23:09:41.360Z,3.80
2022-08-02T23:12:13.154Z,4.03
2022-08-02T23:14:41.380Z,3.37
2022-08-02T23:17:26.750Z,3.50
2022-08-02T23:19:54.870Z,3.47
2022-08-02T23:22:30.015Z,5.30
2022-08-02T23:25:01.720Z,3.37
2022-08-02T23:27:31.905Z,3.03
2022-08-02T23:30:00.590Z,2.83
2022-08-02T23:32:29.320Z,3.30
2022-08-02T23:34:58.529Z,3.50
2022-08-02T23:37:26.767Z,3.23
2022-08-02T23:39:55.235Z,3.17
2022-08-02T23:42:25.862Z,4.53
2022-08-02T23:44:55.739Z,3.43
2022-08-02T23:47:23.962Z,3.87
2022-08-02T23:49:52.095Z,3.00
2022-08-02T23:52:20.420Z,2.63
2022-08-02T23:54:48.665Z,3.10
2022-08-02T23:57:20.246Z,2.87
2022-08-02T23:59:50.680Z,2.73
